createdAt,value
2022-10-16T00:00:01.040Z,100532.47
2022-10-16T00:02:49.217Z,100511.19
2022-10-16T00:05:45.587Z,100505.00
2022-10-16T00:08:33.917Z,100510.38
2022-10-16T00:11:34.484Z,100517.50
2022-10-16T00:14:22.614Z,100535.34
2022-10-16T00:17:10.770Z,100539.75
2022-10-16T00:19:59.218Z,100534.47
2022-10-16T00:22:47.314Z,100536.25
2022-10-16T00:25:35.431Z,100548.69
2022-10-16T00:28:24.011Z,100562.03
2022-10-16T00:31:13.870Z,100562.88
2022-10-16T00:34:02.324Z,100562.91
2022-10-16T00:36:50.500Z,100566.47
2022-10-16T00:39:39.088Z,100573.56
2022-10-16T00:42:27.714Z,100575.34
2022-10-16T00:45:16.454Z,100574.47
2022-10-16T00:50:53.602Z,100585.97
2022-10-16T00:53:42.097Z,100588.66
2022-10-16T00:56:30.299Z,100594.88
2022-10-16T00:59:28.496Z,100600.16
2022-10-16T01:02:17.796Z,100592.22
2022-10-16T01:05:07.025Z,100603.78
2022-10-16T01:08:43.440Z,100606.44
2022-10-16T01:11:43.210Z,100610.91
2022-10-16T01:14:55.240Z,100601.13
2022-10-16T01:18:06.185Z,100596.66
2022-10-16T01:21:17.944Z,100596.72
2022-10-16T01:24:33.705Z,100605.59
2022-10-16T01:27:31.479Z,100597.66
2022-10-16T01:30:28.822Z,100605.66
2022-10-16T01:33:25.985Z,100613.66
2022-10-16T01:36:26.006Z,100608.34
2022-10-16T01:39:15.605Z,100621.72
2022-10-16T01:42:20.076Z,100618.16
2022-10-16T01:45:12.378Z,100616.38
2022-10-16T01:48:06.225Z,100624.34
2022-10-16T01:51:10.528Z,100614.59
2022-10-16T01:54:02.232Z,100622.56
2022-10-16T01:56:51.070Z,100631.44
2022-10-16T01:59:46.382Z,100631.47
2022-10-16T02:02:35.587Z,100634.13
2022-10-16T02:05:34.962Z,100624.34
2022-10-16T02:08:26.082Z,100629.69
2022-10-16T02:11:14.231Z,100633.25
2022-10-16T02:14:07.602Z,100632.38
2022-10-16T02:16:55.756Z,100630.59
2022-10-16T02:19:46.614Z,100636.81
2022-10-16T02:22:39.270Z,100632.38
2022-10-16T02:25:36.192Z,100638.59
2022-10-16T02:28:31.825Z,100636.81
2022-10-16T02:31:28.797Z,100645.69
2022-10-16T02:34:17.802Z,100635.94
2022-10-16T02:37:07.850Z,100619.06
2022-10-16T02:39:58.971Z,100626.22
2022-10-16T02:42:55.570Z,100625.34
2022-10-16T02:45:43.815Z,100633.34
2022-10-16T02:48:32.002Z,100644.91
2022-10-16T02:51:20.218Z,100654.66
2022-10-16T02:54:08.554Z,100653.75
2022-10-16T02:56:56.626Z,100659.06
2022-10-16T02:59:45.242Z,100641.34
2022-10-16T03:02:33.401Z,100642.25
2022-10-16T03:08:10.521Z,100644.00
2022-10-16T03:10:58.755Z,100651.16
2022-10-16T03:13:49.542Z,100651.16
2022-10-16T03:16:37.643Z,100662.66
2022-10-16T03:19:25.818Z,100650.25
2022-10-16T03:22:13.966Z,100643.19
2022-10-16T03:25:02.389Z,100644.09
2022-10-16T03:27:50.567Z,100646.75
2022-10-16T03:30:40.723Z,100657.41
2022-10-16T03:33:28.963Z,100656.53
2022-10-16T03:36:17.162Z,100656.53
2022-10-16T03:39:05.350Z,100654.81
2022-10-16T03:41:53.431Z,100668.13
2022-10-16T03:44:41.622Z,100669.91
2022-10-16T03:47:29.911Z,100670.81
2022-10-16T03:50:18.219Z,100674.34
2022-10-16T03:53:07.062Z,100695.59
2022-10-16T03:55:55.270Z,100692.97
2022-10-16T03:58:43.403Z,100689.41
2022-10-16T04:01:31.560Z,100682.28
2022-10-16T04:04:19.801Z,100674.34
2022-10-16T04:07:08.104Z,100684.09
2022-10-16T04:09:56.383Z,100693.84
2022-10-16T04:12:44.476Z,100699.19
2022-10-16T04:15:32.608Z,100699.22
2022-10-16T04:18:20.750Z,100718.72
2022-10-16T04:21:09.294Z,100715.19
2022-10-16T04:23:57.424Z,100711.66
2022-10-16T04:26:45.567Z,100700.16
2022-10-16T04:29:33.738Z,100707.25
2022-10-16T04:32:22.179Z,100717.00
2022-10-16T04:35:10.445Z,100706.31
2022-10-16T04:37:59.777Z,100692.13
2022-10-16T04:40:47.915Z,100708.09
2022-10-16T04:43:36.084Z,100706.31
2022-10-16T04:46:24.214Z,100705.44
2022-10-16T04:49:12.421Z,100709.00
2022-10-16T04:52:00.615Z,100690.38
2022-10-16T04:54:48.729Z,100704.59
2022-10-16T04:57:36.911Z,100716.09
2022-10-16T05:00:25.079Z,100714.38
2022-10-16T05:03:14.683Z,100707.25
2022-10-16T05:06:02.951Z,100718.81
2022-10-16T05:08:51.118Z,100713.50
2022-10-16T05:11:39.328Z,100724.16
2022-10-16T05:14:27.600Z,100706.41
2022-10-16T05:17:15.872Z,100702.84
2022-10-16T05:20:04.715Z,100715.25
2022-10-16T05:22:52.916Z,100710.84
2022-10-16T05:25:41.112Z,100715.28
2022-10-16T05:28:31.418Z,100727.72
2022-10-16T05:31:20.817Z,100741.00
2022-10-16T05:34:09.043Z,100741.03
2022-10-16T05:36:57.763Z,100751.66
2022-10-16T05:39:46.961Z,100754.31
2022-10-16T05:42:35.076Z,100737.44
2022-10-16T05:45:23.285Z,100747.22
2022-10-16T05:48:11.401Z,100746.34
2022-10-16T05:51:04.610Z,100755.22
2022-10-16T05:53:53.885Z,100761.44
2022-10-16T05:56:42.100Z,100779.19
2022-10-16T05:59:30.232Z,100785.41
2022-10-16T06:02:18.406Z,100783.63
2022-10-16T06:05:07.178Z,100791.59
2022-10-16T06:07:55.280Z,100793.38
2022-10-16T06:10:44.835Z,100796.03
2022-10-16T06:13:33.161Z,100796.03
2022-10-16T06:16:21.625Z,100791.59
2022-10-16T06:19:10.400Z,100785.41
2022-10-16T06:21:59.534Z,100789.81
2022-10-16T06:24:48.694Z,100795.13
2022-10-16T06:27:36.835Z,100812.88
2022-10-16T06:30:24.966Z,100811.09
2022-10-16T06:33:13.514Z,100808.44
2022-10-16T06:36:11.794Z,100821.75
2022-10-16T06:38:59.947Z,100827.06
2022-10-16T06:41:48.134Z,100827.94
2022-10-16T06:44:38.935Z,100842.16
2022-10-16T06:47:27.146Z,100847.47
2022-10-16T06:50:15.446Z,100854.56
2022-10-16T06:53:03.534Z,100843.91
2022-10-16T06:55:51.951Z,100840.34
2022-10-16T06:58:41.139Z,100840.34
2022-10-16T07:01:30.270Z,100863.41
2022-10-16T07:04:18.543Z,100865.19
2022-10-16T07:07:08.694Z,100875.84
2022-10-16T07:09:57.759Z,100881.16
2022-10-16T07:12:46.295Z,100884.69
2022-10-16T07:15:35.095Z,100899.78
2022-10-16T07:18:27.334Z,100903.31
2022-10-16T07:21:20.344Z,100909.53
2022-10-16T07:24:17.371Z,100924.59
2022-10-16T07:27:05.490Z,100921.94
2022-10-16T07:29:53.647Z,100939.69
2022-10-16T07:32:41.768Z,100937.91
2022-10-16T07:35:29.905Z,100947.66
2022-10-16T07:38:18.771Z,100942.34
2022-10-16T07:41:10.089Z,100945.91
2022-10-16T07:44:01.254Z,100943.25
2022-10-16T07:46:49.643Z,100953.00
2022-10-16T07:49:37.722Z,100956.53
2022-10-16T07:52:25.905Z,100949.44
2022-10-16T07:55:14.385Z,100960.06
2022-10-16T07:58:02.625Z,100948.53
2022-10-16T08:00:50.731Z,100953.84
2022-10-16T08:03:39.004Z,100954.75
2022-10-16T08:06:28.203Z,100962.75
2022-10-16T08:09:16.469Z,100960.97
2022-10-16T08:12:05.377Z,100968.94
2022-10-16T08:14:53.610Z,100970.72
2022-10-16T08:17:41.801Z,100971.56
2022-10-16T08:20:31.717Z,100982.25
2022-10-16T08:23:20.027Z,100979.56
2022-10-16T08:26:09.910Z,100981.31
2022-10-16T08:28:58.188Z,100997.28
2022-10-16T08:31:46.408Z,101015.94
2022-10-16T08:34:35.211Z,101028.38
2022-10-16T08:37:23.383Z,101042.59
2022-10-16T08:40:33.489Z,101059.53
2022-10-16T08:43:24.257Z,101052.44
2022-10-16T08:46:28.436Z,101027.50
2022-10-16T08:49:17.226Z,101041.63
2022-10-16T08:52:05.870Z,101041.53
2022-10-16T08:54:56.677Z,101055.72
2022-10-16T08:57:45.207Z,101062.63
2022-10-16T09:00:34.423Z,101057.19
2022-10-16T09:03:49.318Z,101056.16
2022-10-16T09:07:10.971Z,101045.41
2022-10-16T09:10:39.612Z,101044.31
2022-10-16T09:13:51.762Z,101037.25
2022-10-16T09:16:55.051Z,101022.22
2022-10-16T09:20:26.334Z,101023.78
2022-10-16T09:23:19.329Z,101036.00
2022-10-16T09:26:13.137Z,101022.50
2022-10-16T09:29:01.436Z,101011.72
2022-10-16T09:31:50.100Z,100997.41
2022-10-16T09:34:45.357Z,100989.25
2022-10-16T09:37:33.621Z,100975.22
2022-10-16T09:40:35.753Z,100972.56
2022-10-16T09:43:23.797Z,100971.66
2022-10-16T09:46:34.701Z,100976.88
2022-10-16T09:49:26.589Z,100987.31
2022-10-16T09:52:16.540Z,100982.66
2022-10-16T09:55:17.498Z,100966.75
2022-10-16T09:58:14.743Z,100961.16
2022-10-16T10:01:02.896Z,100937.19
2022-10-16T10:03:58.623Z,100938.16
2022-10-16T10:06:54.163Z,100948.78
2022-10-16T10:09:46.965Z,100944.25
2022-10-16T10:12:37.563Z,100940.59
2022-10-16T10:15:27.990Z,100943.16
2022-10-16T10:18:21.072Z,100941.25
2022-10-16T10:21:16.751Z,100935.75
2022-10-16T10:24:06.151Z,100926.72
2022-10-16T10:27:17.975Z,100927.41
2022-10-16T10:30:14.867Z,100921.69
2022-10-16T10:34:00.139Z,100896.91
2022-10-16T10:37:19.556Z,100903.50
2022-10-16T10:40:46.160Z,100902.25
2022-10-16T10:43:49.136Z,100873.75
2022-10-16T10:46:52.441Z,100892.09
2022-10-16T10:50:12.231Z,100886.22
2022-10-16T10:53:43.846Z,100856.88
2022-10-16T10:56:47.376Z,100869.41
2022-10-16T10:59:50.034Z,100882.09
2022-10-16T11:02:59.827Z,100890.28
2022-10-16T11:05:55.908Z,100897.28
2022-10-16T11:09:13.919Z,100894.66
2022-10-16T11:12:27.369Z,100863.16
2022-10-16T11:15:33.245Z,100845.06
2022-10-16T11:18:57.078Z,100861.53
2022-10-16T11:21:55.818Z,100817.66
2022-10-16T11:25:15.238Z,100787.75
2022-10-16T11:28:31.590Z,100783.22
2022-10-16T11:31:22.755Z,100795.44
2022-10-16T11:34:44.286Z,100825.53
2022-10-16T11:37:39.321Z,100785.94
2022-10-16T11:40:34.734Z,100779.44
2022-10-16T11:43:53.048Z,100869.22
2022-10-16T11:46:59.089Z,100898.88
2022-10-16T11:49:58.861Z,100718.97
2022-10-16T11:53:21.112Z,100757.84
2022-10-16T11:56:09.668Z,100708.56
2022-10-16T11:59:05.298Z,100739.38
2022-10-16T12:02:35.114Z,100777.66
2022-10-16T12:05:35.635Z,100753.44
2022-10-16T12:08:24.507Z,100727.31
2022-10-16T12:11:27.705Z,100715.78
2022-10-16T12:14:16.164Z,100717.31
2022-10-16T12:17:22.292Z,100756.53
2022-10-16T12:20:13.445Z,100739.19
2022-10-16T12:23:07.441Z,100721.91
2022-10-16T12:25:58.944Z,100690.69
2022-10-16T12:28:49.627Z,100712.28
2022-10-16T12:31:57.439Z,100764.34
2022-10-16T12:34:46.804Z,100728.34
2022-10-16T12:37:37.182Z,100700.84
2022-10-16T12:40:33.480Z,100694.56
2022-10-16T12:43:26.032Z,100699.91
2022-10-16T12:46:17.385Z,100670.13
2022-10-16T12:49:14.416Z,100651.31
2022-10-16T12:52:02.938Z,100633.94
2022-10-16T12:54:52.147Z,100643.00
2022-10-16T12:58:38.234Z,100654.69
2022-10-16T13:01:53.465Z,100628.88
2022-10-16T13:05:04.664Z,100636.66
2022-10-16T13:08:14.397Z,100631.56
2022-10-16T13:11:56.758Z,100632.69
2022-10-16T13:15:03.370Z,100643.28
2022-10-16T13:18:04.203Z,100633.81
2022-10-16T13:21:19.037Z,100657.09
2022-10-16T13:24:41.268Z,100648.25
2022-10-16T13:28:02.909Z,100666.09
2022-10-16T13:30:58.131Z,100655.72
2022-10-16T13:33:53.765Z,100691.94
2022-10-16T13:36:51.769Z,100629.84
2022-10-16T13:39:40.233Z,100624.72
2022-10-16T13:42:29.630Z,100622.41
2022-10-16T13:45:24.390Z,100625.13
2022-10-16T13:48:13.629Z,100602.44
2022-10-16T13:51:15.225Z,100612.16
2022-10-16T13:54:04.008Z,100613.75
2022-10-16T13:57:03.135Z,100619.75
2022-10-16T13:59:57.613Z,100618.91
2022-10-16T14:02:46.344Z,100605.03
2022-10-16T14:05:35.346Z,100610.22
2022-10-16T14:08:26.405Z,100608.63
2022-10-16T14:11:15.214Z,100594.91
2022-10-16T14:14:03.981Z,100588.19
2022-10-16T14:16:52.897Z,100584.69
2022-10-16T14:19:41.611Z,100599.09
2022-10-16T14:22:42.470Z,100597.00
2022-10-16T14:25:33.768Z,100584.09
2022-10-16T14:28:25.043Z,100580.84
2022-10-16T14:31:34.379Z,100590.78
2022-10-16T14:34:34.697Z,100595.19
2022-10-16T14:37:28.303Z,100607.53
2022-10-16T14:40:24.602Z,100599.69
2022-10-16T14:43:23.994Z,100598.63
2022-10-16T14:46:27.065Z,100585.22
2022-10-16T14:49:21.345Z,100578.75
2022-10-16T14:52:15.786Z,100566.25
2022-10-16T14:55:04.544Z,100580.44
2022-10-16T14:57:56.859Z,100581.94
2022-10-16T15:00:48.291Z,100587.03
2022-10-16T15:03:36.747Z,100592.28
2022-10-16T15:06:25.240Z,100608.59
2022-10-16T15:09:13.833Z,100582.22
2022-10-16T15:12:02.281Z,100599.78
2022-10-16T15:14:50.864Z,100566.44
2022-10-16T15:17:39.345Z,100573.78
2022-10-16T15:20:35.075Z,100578.09
2022-10-16T15:23:24.246Z,100584.41
2022-10-16T15:26:12.748Z,100583.72
2022-10-16T15:29:01.191Z,100592.63
2022-10-16T15:31:49.702Z,100597.00
2022-10-16T15:34:38.250Z,100601.16
2022-10-16T15:37:26.818Z,100596.13
2022-10-16T15:40:15.740Z,100579.41
2022-10-16T15:43:04.115Z,100561.94
2022-10-16T15:46:06.682Z,100561.47
2022-10-16T15:48:59.353Z,100563.53
2022-10-16T15:51:47.943Z,100577.44
2022-10-16T15:54:36.440Z,100578.31
2022-10-16T15:57:25.067Z,100587.97
2022-10-16T16:00:21.837Z,100592.31
2022-10-16T16:03:10.581Z,100594.13
2022-10-16T16:05:59.380Z,100591.44
2022-10-16T16:08:47.399Z,100582.72
2022-10-16T16:11:39.692Z,100573.44
2022-10-16T16:14:29.052Z,100570.88
2022-10-16T16:17:17.275Z,100561.22
2022-10-16T16:20:06.552Z,100564.19
2022-10-16T16:22:55.096Z,100550.47
2022-10-16T16:25:43.465Z,100547.28
2022-10-16T16:28:31.912Z,100543.16
2022-10-16T16:31:20.649Z,100531.44
2022-10-16T16:34:09.344Z,100546.84
2022-10-16T16:36:58.083Z,100552.22
2022-10-16T16:39:46.462Z,100555.13
2022-10-16T16:42:34.867Z,100556.97
2022-10-16T16:45:23.366Z,100544.56
2022-10-16T16:48:11.800Z,100535.28
2022-10-16T16:51:16.235Z,100530.25
2022-10-16T16:54:05.257Z,100536.75
2022-10-16T16:56:53.431Z,100534.19
2022-10-16T16:59:41.945Z,100545.84
2022-10-16T17:02:29.974Z,100543.22
2022-10-16T17:05:19.435Z,100544.28
2022-10-16T17:08:09.587Z,100539.31
2022-10-16T17:10:58.898Z,100543.13
2022-10-16T17:13:49.942Z,100541.94
2022-10-16T17:16:44.698Z,100552.75
2022-10-16T17:19:32.919Z,100552.13
2022-10-16T17:22:21.880Z,100550.72
2022-10-16T17:25:10.461Z,100552.09
2022-10-16T17:27:58.934Z,100583.97
2022-10-16T17:30:47.456Z,100598.09
2022-10-16T17:33:35.906Z,100599.81
2022-10-16T17:36:24.630Z,100593.66
2022-10-16T17:39:15.484Z,100587.59
2022-10-16T17:42:04.069Z,100591.22
2022-10-16T17:44:52.449Z,100583.41
2022-10-16T17:47:42.568Z,100593.31
2022-10-16T17:50:31.121Z,100585.44
2022-10-16T17:53:19.548Z,100607.78
2022-10-16T17:56:13.884Z,100632.72
2022-10-16T17:59:03.353Z,100647.75
2022-10-16T18:01:51.912Z,100664.56
2022-10-16T18:04:40.517Z,100682.25
2022-10-16T18:07:29.184Z,100681.34
2022-10-16T18:10:20.827Z,100693.81
2022-10-16T18:13:10.882Z,100700.97
2022-10-16T18:16:05.515Z,100672.00
2022-10-16T18:18:57.173Z,100697.66
2022-10-16T18:21:46.140Z,100686.38
2022-10-16T18:24:34.697Z,100701.31
2022-10-16T18:27:23.284Z,100692.66
2022-10-16T18:30:12.226Z,100710.31
2022-10-16T18:33:00.675Z,100721.78
2022-10-16T18:35:49.207Z,100679.47
2022-10-16T18:38:51.957Z,100709.53
2022-10-16T18:42:00.201Z,100721.91
2022-10-16T18:44:52.637Z,100704.22
2022-10-16T18:47:41.410Z,100687.41
2022-10-16T18:50:30.182Z,100691.84
2022-10-16T18:53:18.952Z,100677.72
2022-10-16T18:56:07.947Z,100673.34
2022-10-16T18:58:59.337Z,100689.28
2022-10-16T19:01:48.990Z,100707.91
2022-10-16T19:04:37.541Z,100715.91
2022-10-16T19:07:27.488Z,100711.44
2022-10-16T19:10:16.491Z,100721.19
2022-10-16T19:13:07.595Z,100713.28
2022-10-16T19:16:09.447Z,100717.78
2022-10-16T19:19:15.302Z,100711.72
2022-10-16T19:22:28.230Z,100729.41
2022-10-16T19:25:17.555Z,100745.34
2022-10-16T19:28:08.073Z,100720.59
2022-10-16T19:30:56.034Z,100746.31
2022-10-16T19:33:44.318Z,100760.47
2022-10-16T19:36:36.098Z,100759.56
2022-10-16T19:39:25.291Z,100763.09
2022-10-16T19:42:13.502Z,100751.59
2022-10-16T19:45:01.843Z,100767.56
2022-10-16T19:47:50.164Z,100761.38
2022-10-16T19:50:45.160Z,100749.84
2022-10-16T19:53:33.798Z,100736.59
2022-10-16T19:56:23.217Z,100742.84
2022-10-16T19:59:13.632Z,100741.94
2022-10-16T20:02:01.973Z,100763.22
2022-10-16T20:04:50.489Z,100775.63
2022-10-16T20:07:38.655Z,100761.50
2022-10-16T20:10:26.922Z,100785.41
2022-10-16T20:13:15.164Z,100768.56
2022-10-16T20:16:06.504Z,100782.75
2022-10-16T20:18:55.443Z,100783.63
2022-10-16T20:21:43.586Z,100794.28
2022-10-16T20:24:31.834Z,100781.84
2022-10-16T20:27:19.953Z,100796.91
2022-10-16T20:30:09.082Z,100803.13
2022-10-16T20:32:57.734Z,100797.78
2022-10-16T20:35:48.975Z,100796.91
2022-10-16T20:38:37.980Z,100789.81
2022-10-16T20:41:26.917Z,100795.09
2022-10-16T20:44:15.313Z,100802.19
2022-10-16T20:47:03.695Z,100817.22
2022-10-16T20:49:53.449Z,100838.53
2022-10-16T20:52:42.096Z,100832.31
2022-10-16T20:55:31.023Z,100842.94
2022-10-16T20:58:19.412Z,100844.72
2022-10-16T21:01:16.988Z,100842.03
2022-10-16T21:04:08.238Z,100839.38
2022-10-16T21:06:56.760Z,100851.75
2022-10-16T21:09:45.153Z,100852.63
2022-10-16T21:12:33.625Z,100845.56
2022-10-16T21:15:22.401Z,100839.31
2022-10-16T21:18:10.548Z,100841.06
2022-10-16T21:20:59.086Z,100844.63
2022-10-16T21:23:48.483Z,100821.50
2022-10-16T21:26:36.526Z,100822.38
2022-10-16T21:29:24.834Z,100825.94
2022-10-16T21:32:13.026Z,100837.44
2022-10-16T21:35:01.551Z,100852.50
2022-10-16T21:37:50.367Z,100865.88
2022-10-16T21:40:38.415Z,100861.41
2022-10-16T21:43:26.564Z,100860.50
2022-10-16T21:46:19.014Z,100886.28
2022-10-16T21:49:14.420Z,100898.69
2022-10-16T21:52:02.518Z,100902.25
2022-10-16T21:54:50.634Z,100901.34
2022-10-16T21:57:39.353Z,100894.22
2022-10-16T22:00:27.467Z,100909.28
2022-10-16T22:03:15.659Z,100911.94
2022-10-16T22:06:07.292Z,100936.88
2022-10-16T22:09:02.075Z,100939.50
2022-10-16T22:11:51.112Z,100921.66
2022-10-16T22:14:41.017Z,100924.31
2022-10-16T22:17:30.030Z,100931.44
2022-10-16T22:20:18.398Z,100922.53
2022-10-16T22:23:06.556Z,100909.16
2022-10-16T22:26:04.292Z,100921.56
2022-10-16T22:28:52.670Z,100927.72
2022-10-16T22:31:40.896Z,100930.31
2022-10-16T22:34:29.687Z,100934.84
2022-10-16T22:37:18.104Z,100955.28
2022-10-16T22:40:06.983Z,100965.97
2022-10-16T22:42:55.149Z,100974.00
2022-10-16T22:45:43.670Z,100971.34
2022-10-16T22:48:32.096Z,100978.47
2022-10-16T22:51:20.628Z,100977.53
2022-10-16T22:54:09.129Z,100965.91
2022-10-16T22:56:57.090Z,100962.25
2022-10-16T22:59:47.097Z,100971.09
2022-10-16T23:02:35.199Z,100988.88
2022-10-16T23:05:23.310Z,100992.41
2022-10-16T23:08:14.358Z,100989.69
2022-10-16T23:11:10.057Z,100994.06
2022-10-16T23:13:58.695Z,101005.59
2022-10-16T23:16:47.058Z,101015.34
2022-10-16T23:19:35.456Z,101010.81
2022-10-16T23:22:23.873Z,101022.28
2022-10-16T23:25:12.290Z,101022.16
2022-10-16T23:28:00.797Z,101046.22
2022-10-16T23:30:49.641Z,101046.25
2022-10-16T23:33:40.683Z,101062.41
2022-10-16T23:36:29.440Z,101062.28
2022-10-16T23:39:17.864Z,101070.28
2022-10-16T23:42:06.213Z,101074.69
2022-10-16T23:44:54.654Z,101067.53
2022-10-16T23:47:43.083Z,101065.66
2022-10-16T23:50:31.633Z,101056.63
2022-10-16T23:53:20.216Z,101073.47
2022-10-16T23:56:09.253Z,101064.47
2022-10-16T23:58:57.742Z,101059.03
